createdAt,value
2015-07-19T00:00:03.888Z,22
2015-07-19T00:00:22.310Z,22
2015-07-19T00:00:40.826Z,22
2015-07-19T00:00:59.484Z,22
2015-07-19T00:01:17.859Z,22
2015-07-19T00:01:36.375Z,22
2015-07-19T00:01:54.970Z,22
2015-07-19T00:02:13.423Z,22
2015-07-19T00:02:31.205Z,22
2015-07-19T00:02:49.689Z,22
2015-07-19T00:03:08.144Z,22
2015-07-19T00:03:26.675Z,22
2015-07-19T00:03:44.394Z,22
2015-07-19T00:04:02.865Z,23
2015-07-19T00:04:21.490Z,23
2015-07-19T00:04:39.865Z,23
2015-07-19T00:04:58.445Z,23
2015-07-19T00:05:16.929Z,23
2015-07-19T00:05:35.476Z,23
2015-07-19T00:05:54.008Z,23
2015-07-19T00:06:12.603Z,23
2015-07-19T00:06:31.213Z,23
2015-07-19T00:06:49.619Z,22
2015-07-19T00:07:08.027Z,22
2015-07-19T00:07:26.418Z,22
2015-07-19T00:07:44.793Z,22
2015-07-19T00:08:03.279Z,22
2015-07-19T00:08:21.732Z,22
2015-07-19T00:08:40.373Z,22
2015-07-19T00:08:58.889Z,22
2015-07-19T00:09:17.312Z,22
2015-07-19T00:09:35.766Z,22
2015-07-19T00:09:54.141Z,22
2015-07-19T00:10:12.767Z,22
2015-07-19T00:10:31.282Z,22
2015-07-19T00:10:49.860Z,22
2015-07-19T00:11:08.394Z,22
2015-07-19T00:11:26.909Z,22
2015-07-19T00:11:45.472Z,22
2015-07-19T00:12:03.943Z,22
2015-07-19T00:12:22.397Z,22
2015-07-19T00:12:40.928Z,22
2015-07-19T00:12:59.568Z,22
2015-07-19T00:13:17.977Z,22
2015-07-19T00:13:36.555Z,22
2015-07-19T00:13:55.117Z,22
2015-07-19T00:14:13.572Z,22
2015-07-19T00:14:32.072Z,22
2015-07-19T00:14:50.588Z,22
2015-07-19T00:15:09.245Z,22
2015-07-19T00:15:27.620Z,22
2015-07-19T00:15:46.073Z,22
2015-07-19T00:16:04.745Z,22
2015-07-19T00:16:23.169Z,22
2015-07-19T00:16:41.763Z,22
2015-07-19T00:17:00.122Z,22
2015-07-19T00:17:18.499Z,22
2015-07-19T00:17:36.874Z,22
2015-07-19T00:17:55.468Z,22
2015-07-19T00:18:13.876Z,22
2015-07-19T00:18:32.470Z,22
2015-07-19T00:18:50.845Z,22
2015-07-19T00:19:09.423Z,22
2015-07-19T00:19:27.864Z,22
2015-07-19T00:19:46.395Z,22
2015-07-19T00:20:04.895Z,22
2015-07-19T00:20:23.490Z,22
2015-07-19T00:20:41.912Z,22
2015-07-19T00:21:00.505Z,22
2015-07-19T00:21:18.882Z,22
2015-07-19T00:21:37.695Z,22
2015-07-19T00:21:56.117Z,22
2015-07-19T00:22:14.679Z,22
2015-07-19T00:22:33.291Z,22
2015-07-19T00:22:51.916Z,22
2015-07-19T00:23:10.416Z,22
2015-07-19T00:23:28.824Z,22
2015-07-19T00:23:47.433Z,22
2015-07-19T00:24:05.824Z,22
2015-07-19T00:24:24.263Z,22
2015-07-19T00:24:42.154Z,22
2015-07-19T00:25:00.560Z,22
2015-07-19T00:25:18.920Z,22
2015-07-19T00:25:37.468Z,22
2015-07-19T00:25:56.000Z,22
2015-07-19T00:26:14.484Z,22
2015-07-19T00:26:32.924Z,22
2015-07-19T00:26:51.470Z,22
2015-07-19T00:27:09.939Z,23
2015-07-19T00:27:28.316Z,22
2015-07-19T00:27:46.801Z,22
2015-07-19T00:28:05.191Z,23
2015-07-19T00:28:23.722Z,23
2015-07-19T00:28:46.693Z,23
2015-07-19T00:29:05.131Z,22
2015-07-19T00:29:23.584Z,23
2015-07-19T00:29:41.961Z,23
2015-07-19T00:30:00.570Z,23
2015-07-19T00:30:18.976Z,22
2015-07-19T00:30:37.571Z,23
2015-07-19T00:30:55.993Z,23
2015-07-19T00:31:14.462Z,22
2015-07-19T00:31:33.012Z,22
2015-07-19T00:31:51.465Z,23
2015-07-19T00:32:09.965Z,22
2015-07-19T00:32:28.402Z,23
2015-07-19T00:32:46.779Z,23
2015-07-19T00:33:05.170Z,22
2015-07-19T00:33:23.545Z,23
2015-07-19T00:33:42.000Z,23
2015-07-19T00:34:00.375Z,23
2015-07-19T00:34:18.844Z,23
2015-07-19T00:34:37.423Z,23
2015-07-19T00:34:55.829Z,23
2015-07-19T00:35:14.314Z,22
2015-07-19T00:35:33.079Z,22
2015-07-19T00:35:51.550Z,23
2015-07-19T00:36:10.003Z,22
2015-07-19T00:36:28.487Z,23
2015-07-19T00:36:47.037Z,22
2015-07-19T00:37:05.756Z,22
2015-07-19T00:37:23.662Z,23
2015-07-19T00:37:42.116Z,23
2015-07-19T00:38:00.538Z,23
2015-07-19T00:38:19.038Z,22
2015-07-19T00:38:37.507Z,22
2015-07-19T00:38:55.213Z,22
2015-07-19T00:39:13.885Z,23
2015-07-19T00:39:32.260Z,23
2015-07-19T00:39:50.636Z,22
2015-07-19T00:40:09.027Z,23
2015-07-19T00:40:27.433Z,22
2015-07-19T00:40:45.826Z,22
2015-07-19T00:41:04.232Z,22
2015-07-19T00:41:22.732Z,22
2015-07-19T00:41:41.154Z,23
2015-07-19T00:41:59.703Z,23
2015-07-19T00:42:18.234Z,23
2015-07-19T00:42:36.671Z,23
2015-07-19T00:42:55.096Z,23
2015-07-19T00:43:13.471Z,22
2015-07-19T00:43:31.893Z,22
2015-07-19T00:43:50.332Z,22
2015-07-19T00:44:08.707Z,22
2015-07-19T00:44:27.082Z,22
2015-07-19T00:44:45.519Z,22
2015-07-19T00:45:03.990Z,22
2015-07-19T00:45:22.349Z,22
2015-07-19T00:45:40.771Z,22
2015-07-19T00:45:59.414Z,22
2015-07-19T00:46:17.789Z,22
2015-07-19T00:46:36.211Z,22
2015-07-19T00:46:54.588Z,22
2015-07-19T00:47:12.978Z,22
2015-07-19T00:47:30.853Z,22
2015-07-19T00:47:49.447Z,22
2015-07-19T00:48:07.902Z,22
2015-07-19T00:48:26.605Z,22
2015-07-19T00:48:45.105Z,22
2015-07-19T00:49:03.576Z,22
2015-07-19T00:49:22.013Z,22
2015-07-19T00:49:40.373Z,22
2015-07-19T00:49:58.875Z,23
2015-07-19T00:50:17.359Z,22
2015-07-19T00:50:35.828Z,22
2015-07-19T00:50:54.203Z,23
2015-07-19T00:51:12.564Z,22
2015-07-19T00:51:31.064Z,22
2015-07-19T00:51:49.533Z,23
2015-07-19T00:52:07.910Z,22
2015-07-19T00:52:26.301Z,23
2015-07-19T00:52:44.051Z,24
2015-07-19T00:53:02.459Z,22
2015-07-19T00:53:20.865Z,22
2015-07-19T00:53:39.443Z,22
2015-07-19T00:53:57.945Z,22
2015-07-19T00:54:16.398Z,22
2015-07-19T00:54:34.211Z,22
2015-07-19T00:54:52.586Z,22
2015-07-19T00:55:10.963Z,22
2015-07-19T00:55:29.400Z,22
2015-07-19T00:55:47.760Z,22
2015-07-19T00:56:06.309Z,22
2015-07-19T00:56:24.715Z,22
2015-07-19T00:56:43.168Z,22
2015-07-19T00:57:01.592Z,22
2015-07-19T00:57:19.967Z,22
2015-07-19T00:57:38.576Z,22
2015-07-19T00:57:57.248Z,22
2015-07-19T00:58:15.641Z,22
2015-07-19T00:58:34.000Z,22
2015-07-19T00:58:52.406Z,22
2015-07-19T00:59:10.893Z,22
2015-07-19T00:59:29.268Z,22
2015-07-19T00:59:47.768Z,22
2015-07-19T01:00:06.206Z,22
2015-07-19T01:00:24.659Z,22
2015-07-19T01:00:43.363Z,22
2015-07-19T01:01:02.003Z,22
2015-07-19T01:01:20.380Z,22
2015-07-19T01:01:38.786Z,22
2015-07-19T01:01:57.240Z,22
2015-07-19T01:02:15.633Z,22
2015-07-19T01:02:33.977Z,22
2015-07-19T01:02:51.758Z,22
2015-07-19T01:03:10.385Z,22
2015-07-19T01:03:28.995Z,22
2015-07-19T01:03:47.401Z,22
2015-07-19T01:04:05.823Z,22
2015-07-19T01:04:24.230Z,22
2015-07-19T01:04:42.636Z,23
2015-07-19T01:05:01.027Z,22
2015-07-19T01:05:19.530Z,22
2015-07-19T01:05:37.295Z,22
2015-07-19T01:05:55.842Z,22
2015-07-19T01:06:14.376Z,22
2015-07-19T01:06:32.844Z,22
2015-07-19T01:06:51.282Z,22
2015-07-19T01:07:09.672Z,22
2015-07-19T01:07:28.064Z,22
2015-07-19T01:07:46.470Z,22
2015-07-19T01:08:04.892Z,22
2015-07-19T01:08:23.269Z,22
2015-07-19T01:08:41.754Z,22
2015-07-19T01:09:00.160Z,22
2015-07-19T01:09:18.693Z,22
2015-07-19T01:09:37.099Z,22
2015-07-19T01:09:55.584Z,22
2015-07-19T01:10:13.461Z,22
2015-07-19T01:10:31.836Z,22
2015-07-19T01:10:50.211Z,22
2015-07-19T01:11:08.586Z,22
2015-07-19T01:11:27.150Z,22
2015-07-19T01:11:45.760Z,22
2015-07-19T01:12:04.213Z,23
2015-07-19T01:12:22.668Z,23
2015-07-19T01:12:41.137Z,23
2015-07-19T01:12:59.558Z,23
2015-07-19T01:13:18.045Z,22
2015-07-19T01:13:36.467Z,22
2015-07-19T01:13:54.904Z,22
2015-07-19T01:14:13.295Z,22
2015-07-19T01:14:31.703Z,22
2015-07-19T01:14:50.094Z,22
2015-07-19T01:15:08.594Z,23
2015-07-19T01:15:27.080Z,23
2015-07-19T01:15:45.768Z,23
2015-07-19T01:16:04.143Z,23
2015-07-19T01:16:22.504Z,23
2015-07-19T01:16:40.957Z,23
2015-07-19T01:16:59.363Z,23
2015-07-19T01:17:17.785Z,23
2015-07-19T01:17:36.428Z,23
2015-07-19T01:17:54.787Z,23
2015-07-19T01:18:13.272Z,23
2015-07-19T01:18:31.961Z,22
2015-07-19T01:18:50.555Z,22
2015-07-19T01:19:09.289Z,22
2015-07-19T01:19:27.885Z,22
2015-07-19T01:19:46.354Z,22
2015-07-19T01:20:04.854Z,22
2015-07-19T01:20:23.432Z,22
2015-07-19T01:20:41.839Z,22
2015-07-19T01:21:00.245Z,22
2015-07-19T01:21:18.683Z,22
2015-07-19T01:21:37.186Z,22
2015-07-19T01:21:55.545Z,23
2015-07-19T01:22:13.967Z,22
2015-07-19T01:22:32.452Z,22
2015-07-19T01:22:50.999Z,23
2015-07-19T01:23:09.531Z,22
2015-07-19T01:23:28.017Z,22
2015-07-19T01:23:46.517Z,23
2015-07-19T01:24:05.017Z,22
2015-07-19T01:24:23.533Z,22
2015-07-19T01:24:41.925Z,23
2015-07-19T01:25:00.488Z,23
2015-07-19T01:25:19.050Z,23
2015-07-19T01:25:37.662Z,23
2015-07-19T01:25:56.083Z,23
2015-07-19T01:26:14.630Z,23
2015-07-19T01:26:33.164Z,23
2015-07-19T01:26:51.851Z,23
2015-07-19T01:27:10.257Z,23
2015-07-19T01:27:28.773Z,23
2015-07-19T01:27:47.337Z,23
2015-07-19T01:28:05.916Z,24
2015-07-19T01:28:24.291Z,23
2015-07-19T01:28:42.902Z,23
2015-07-19T01:29:01.355Z,23
2015-07-19T01:29:19.996Z,23
2015-07-19T01:29:38.373Z,23
2015-07-19T01:29:56.935Z,23
2015-07-19T01:30:15.404Z,23
2015-07-19T01:30:33.873Z,23
2015-07-19T01:30:52.391Z,24
2015-07-19T01:31:10.798Z,24
2015-07-19T01:31:29.157Z,24
2015-07-19T01:31:47.564Z,23
2015-07-19T01:32:05.955Z,23
2015-07-19T01:32:23.705Z,23
2015-07-19T01:32:42.066Z,23
2015-07-19T01:33:00.457Z,23
2015-07-19T01:33:18.832Z,23
2015-07-19T01:33:37.222Z,23
2015-07-19T01:33:55.631Z,23
2015-07-19T01:34:14.209Z,23
2015-07-19T01:34:32.599Z,23
2015-07-19T01:34:51.211Z,23
2015-07-19T01:35:09.586Z,23
2015-07-19T01:35:28.133Z,23
2015-07-19T01:35:46.572Z,22
2015-07-19T01:36:04.978Z,22
2015-07-19T01:36:23.385Z,23
2015-07-19T01:36:41.963Z,22
2015-07-19T01:37:00.449Z,23
2015-07-19T01:37:18.871Z,22
2015-07-19T01:37:37.277Z,22
2015-07-19T01:37:55.857Z,22
2015-07-19T01:38:13.748Z,22
2015-07-19T01:38:32.389Z,22
2015-07-19T01:38:50.813Z,22
2015-07-19T01:39:09.359Z,23
2015-07-19T01:39:27.750Z,23
2015-07-19T01:39:46.190Z,22
2015-07-19T01:40:04.658Z,22
2015-07-19T01:40:23.127Z,22
2015-07-19T01:40:41.518Z,22
2015-07-19T01:40:59.253Z,22
2015-07-19T01:41:17.659Z,22
2015-07-19T01:41:36.050Z,22
2015-07-19T01:41:54.739Z,22
2015-07-19T01:42:13.146Z,22
2015-07-19T01:42:31.521Z,22
2015-07-19T01:42:50.007Z,22
2015-07-19T01:43:08.382Z,22
2015-07-19T01:43:27.007Z,22
2015-07-19T01:43:45.538Z,22
2015-07-19T01:44:04.056Z,22
2015-07-19T01:44:22.587Z,22
2015-07-19T01:44:40.993Z,22
2015-07-19T01:44:59.543Z,22
2015-07-19T01:45:18.090Z,22
2015-07-19T01:45:36.528Z,22
2015-07-19T01:45:55.030Z,22
2015-07-19T01:46:13.717Z,22
2015-07-19T01:46:32.077Z,22
2015-07-19T01:46:50.530Z,22
2015-07-19T01:47:08.985Z,22
2015-07-19T01:47:27.454Z,22
2015-07-19T01:47:45.922Z,21
2015-07-19T01:48:04.377Z,22
2015-07-19T01:48:22.831Z,22
2015-07-19T01:48:41.596Z,21
2015-07-19T01:48:59.988Z,22
2015-07-19T01:49:18.410Z,22
2015-07-19T01:49:36.847Z,22
2015-07-19T01:49:55.285Z,22
2015-07-19T01:50:13.709Z,22
2015-07-19T01:50:32.130Z,22
2015-07-19T01:50:50.615Z,21
2015-07-19T01:51:09.117Z,21
2015-07-19T01:51:27.539Z,21
2015-07-19T01:51:45.961Z,22
2015-07-19T01:52:04.339Z,21
2015-07-19T01:52:22.870Z,21
2015-07-19T01:52:41.245Z,21
2015-07-19T01:52:59.776Z,21
2015-07-19T01:53:18.246Z,21
2015-07-19T01:53:36.793Z,21
2015-07-19T01:53:55.152Z,21
2015-07-19T01:54:13.607Z,22
2015-07-19T01:54:32.013Z,21
2015-07-19T01:54:50.592Z,21
2015-07-19T01:55:09.031Z,21
2015-07-19T01:55:27.437Z,21
2015-07-19T01:55:45.797Z,21
2015-07-19T01:56:04.330Z,21
2015-07-19T01:56:22.908Z,21
2015-07-19T01:56:41.471Z,21
2015-07-19T01:56:59.846Z,21
2015-07-19T01:57:18.348Z,21
2015-07-19T01:57:36.832Z,22
2015-07-19T01:57:55.348Z,21
2015-07-19T01:58:13.834Z,21
2015-07-19T01:58:32.459Z,21
2015-07-19T01:58:50.943Z,21
2015-07-19T01:59:09.508Z,22
2015-07-19T01:59:27.898Z,21
2015-07-19T01:59:46.289Z,21
2015-07-19T02:00:04.742Z,21
2015-07-19T02:00:23.182Z,21
2015-07-19T02:00:41.541Z,21
2015-07-19T02:01:00.119Z,21
2015-07-19T02:01:18.621Z,21
2015-07-19T02:01:37.043Z,21
2015-07-19T02:01:54.902Z,22
2015-07-19T02:02:13.717Z,22
2015-07-19T02:02:32.186Z,22
2015-07-19T02:02:50.748Z,22
2015-07-19T02:03:08.545Z,22
2015-07-19T02:03:27.000Z,22
2015-07-19T02:03:45.422Z,22
2015-07-19T02:04:03.891Z,22
2015-07-19T02:04:22.517Z,21
2015-07-19T02:04:40.251Z,21
2015-07-19T02:04:58.642Z,21
2015-07-19T02:05:17.035Z,21
2015-07-19T02:05:35.473Z,21
2015-07-19T02:05:53.879Z,21
2015-07-19T02:06:12.426Z,21
2015-07-19T02:06:30.787Z,21
2015-07-19T02:06:49.319Z,22
2015-07-19T02:07:07.709Z,21
2015-07-19T02:07:26.351Z,22
2015-07-19T02:07:44.835Z,22
2015-07-19T02:08:03.398Z,22
2015-07-19T02:08:21.806Z,22
2015-07-19T02:08:40.540Z,22
2015-07-19T02:08:58.915Z,22
2015-07-19T02:09:17.275Z,22
2015-07-19T02:09:35.684Z,22
2015-07-19T02:09:54.043Z,21
2015-07-19T02:10:12.575Z,21
2015-07-19T02:10:30.936Z,21
2015-07-19T02:10:49.499Z,21
2015-07-19T02:11:07.920Z,21
2015-07-19T02:11:25.688Z,21
2015-07-19T02:11:44.126Z,22
2015-07-19T02:12:02.532Z,22
2015-07-19T02:12:20.971Z,22
2015-07-19T02:12:39.503Z,21
2015-07-19T02:12:57.924Z,22
2015-07-19T02:13:16.284Z,22
2015-07-19T02:13:34.660Z,22
2015-07-19T02:13:53.082Z,22
2015-07-19T02:14:11.457Z,22
2015-07-19T02:14:30.006Z,22
2015-07-19T02:14:48.490Z,22
2015-07-19T02:15:07.052Z,22
2015-07-19T02:15:25.648Z,22
2015-07-19T02:15:44.101Z,22
2015-07-19T02:16:02.945Z,22
2015-07-19T02:16:21.351Z,21
2015-07-19T02:16:39.822Z,22
2015-07-19T02:16:58.197Z,22
2015-07-19T02:17:16.681Z,22
2015-07-19T02:17:35.105Z,22
2015-07-19T02:17:53.637Z,22
2015-07-19T02:18:12.058Z,22
2015-07-19T02:18:30.593Z,22
2015-07-19T02:18:48.983Z,22
2015-07-19T02:19:07.343Z,22
2015-07-19T02:19:25.936Z,22
2015-07-19T02:19:44.485Z,22
2015-07-19T02:20:02.985Z,22
2015-07-19T02:20:21.501Z,22
2015-07-19T02:20:39.924Z,21
2015-07-19T02:20:58.330Z,22
2015-07-19T02:21:16.814Z,21
2015-07-19T02:21:35.191Z,22
2015-07-19T02:21:53.879Z,22
2015-07-19T02:22:12.379Z,22
2015-07-19T02:22:30.816Z,22
2015-07-19T02:22:49.318Z,22
2015-07-19T02:23:07.772Z,21
2015-07-19T02:23:26.240Z,22
2015-07-19T02:23:44.711Z,21
2015-07-19T02:24:03.117Z,21
2015-07-19T02:24:21.680Z,21
2015-07-19T02:24:40.119Z,21
2015-07-19T02:24:58.682Z,21
2015-07-19T02:25:17.322Z,21
2015-07-19T02:25:35.869Z,21
2015-07-19T02:25:54.246Z,21
2015-07-19T02:26:12.699Z,21
2015-07-19T02:26:31.434Z,22
2015-07-19T02:26:49.826Z,22
2015-07-19T02:27:08.264Z,22
2015-07-19T02:27:26.686Z,22
2015-07-19T02:27:45.047Z,22
2015-07-19T02:28:03.500Z,22
2015-07-19T02:28:21.985Z,22
2015-07-19T02:28:40.485Z,21
2015-07-19T02:28:58.299Z,22
2015-07-19T02:29:16.784Z,22
2015-07-19T02:29:35.424Z,22
2015-07-19T02:29:54.207Z,22
2015-07-19T02:30:12.661Z,22
2015-07-19T02:30:30.489Z,22
2015-07-19T02:30:48.944Z,22
2015-07-19T02:31:07.522Z,22
2015-07-19T02:31:25.881Z,22
2015-07-19T02:31:44.288Z,22
2015-07-19T02:32:02.711Z,22
2015-07-19T02:32:21.274Z,22
2015-07-19T02:32:39.899Z,22
2015-07-19T02:32:58.463Z,21
2015-07-19T02:33:16.838Z,22
2015-07-19T02:33:35.307Z,22
2015-07-19T02:33:53.700Z,21
2015-07-19T02:34:12.169Z,21
2015-07-19T02:34:30.700Z,22
2015-07-19T02:34:49.139Z,22
2015-07-19T02:35:07.561Z,22
2015-07-19T02:35:26.217Z,21
2015-07-19T02:35:44.592Z,22
2015-07-19T02:36:03.360Z,22
2015-07-19T02:36:21.766Z,22
2015-07-19T02:36:40.360Z,22
2015-07-19T02:36:59.050Z,22
2015-07-19T02:37:17.909Z,22
2015-07-19T02:37:36.409Z,22
2015-07-19T02:37:55.160Z,22
2015-07-19T02:38:13.691Z,22
2015-07-19T02:38:32.238Z,22
2015-07-19T02:38:50.769Z,23
2015-07-19T02:39:09.256Z,22
2015-07-19T02:39:27.818Z,22
2015-07-19T02:39:46.365Z,22
2015-07-19T02:40:04.851Z,22
2015-07-19T02:40:23.351Z,22
2015-07-19T02:40:41.867Z,23
2015-07-19T02:41:00.292Z,23
2015-07-19T02:41:18.933Z,23
2015-07-19T02:41:37.479Z,23
2015-07-19T02:41:55.840Z,23
2015-07-19T02:42:14.184Z,23
2015-07-19T02:42:32.637Z,23
2015-07-19T02:42:51.215Z,23
2015-07-19T02:43:09.732Z,23
2015-07-19T02:43:28.154Z,23
2015-07-19T02:44:08.297Z,23
2015-07-19T02:44:26.688Z,24
2015-07-19T02:44:45.328Z,23
2015-07-19T02:45:03.830Z,24
2015-07-19T02:45:22.268Z,23
2015-07-19T02:45:40.861Z,24
2015-07-19T02:45:59.317Z,24
2015-07-19T02:46:17.723Z,23
2015-07-19T02:46:36.270Z,24
2015-07-19T02:46:54.926Z,24
2015-07-19T02:47:13.428Z,24
2015-07-19T02:47:31.975Z,24
2015-07-19T02:47:50.584Z,24
2015-07-19T02:48:08.992Z,24
2015-07-19T02:48:27.602Z,24
2015-07-19T02:48:46.571Z,24
2015-07-19T02:49:04.947Z,25
2015-07-19T02:49:23.306Z,25
2015-07-19T02:49:41.822Z,25
2015-07-19T02:50:00.228Z,25
2015-07-19T02:50:18.715Z,26
2015-07-19T02:50:37.262Z,26
2015-07-19T02:50:55.668Z,26
2015-07-19T02:51:14.154Z,26
2015-07-19T02:51:32.685Z,27
2015-07-19T02:51:51.169Z,27
2015-07-19T02:52:09.687Z,28
2015-07-19T02:52:28.234Z,28
2015-07-19T02:52:46.874Z,29
2015-07-19T02:53:05.393Z,30
2015-07-19T02:53:23.221Z,30
2015-07-19T02:53:41.674Z,31
2015-07-19T02:54:00.174Z,31
2015-07-19T02:54:18.645Z,32
2015-07-19T02:54:37.129Z,33
2015-07-19T02:54:55.520Z,34
2015-07-19T02:55:13.927Z,34
2015-07-19T02:55:32.412Z,35
2015-07-19T02:55:50.787Z,36
2015-07-19T02:56:09.305Z,37
2015-07-19T02:56:27.868Z,38
2015-07-19T02:56:46.352Z,39
2015-07-19T02:57:04.087Z,39
2015-07-19T02:57:22.542Z,40
2015-07-19T02:57:40.948Z,41
2015-07-19T02:57:59.714Z,41
2015-07-19T02:58:18.199Z,42
2015-07-19T02:58:36.621Z,42
2015-07-19T02:58:55.058Z,43
2015-07-19T02:59:13.623Z,43
2015-07-19T02:59:32.217Z,43
2015-07-19T02:59:50.826Z,44
2015-07-19T03:00:09.467Z,44
2015-07-19T03:00:27.844Z,44
2015-07-19T03:00:46.219Z,44
2015-07-19T03:01:04.625Z,45
2015-07-19T03:01:23.002Z,45
2015-07-19T03:01:41.455Z,45
2015-07-19T03:01:59.955Z,46
2015-07-19T03:02:18.473Z,46
2015-07-19T03:02:36.926Z,47
2015-07-19T03:02:54.660Z,48
2015-07-19T03:03:13.256Z,48
2015-07-19T03:03:31.678Z,49
2015-07-19T03:03:50.162Z,51
2015-07-19T03:04:08.537Z,52
2015-07-19T03:04:26.930Z,53
2015-07-19T03:04:45.289Z,56
2015-07-19T03:05:03.930Z,57
2015-07-19T03:05:22.619Z,59
2015-07-19T03:05:41.197Z,61
2015-07-19T03:05:59.572Z,64
2015-07-19T03:06:18.059Z,66
2015-07-19T03:06:36.418Z,68
2015-07-19T03:06:55.043Z,70
2015-07-19T03:07:13.746Z,71
2015-07-19T03:07:32.326Z,73
2015-07-19T03:07:50.811Z,74
2015-07-19T03:08:09.201Z,76
2015-07-19T03:08:27.688Z,77
2015-07-19T03:08:46.094Z,79
2015-07-19T03:09:04.485Z,81
2015-07-19T03:09:23.112Z,83
2015-07-19T03:09:41.502Z,85
2015-07-19T03:09:59.893Z,88
2015-07-19T03:10:18.502Z,91
2015-07-19T03:10:36.879Z,94
2015-07-19T03:10:55.285Z,97
2015-07-19T03:11:13.832Z,101
2015-07-19T03:11:32.349Z,106
2015-07-19T03:11:50.740Z,110
2015-07-19T03:12:09.115Z,114
2015-07-19T03:12:27.538Z,119
2015-07-19T03:12:45.913Z,124
2015-07-19T03:13:04.492Z,128
2015-07-19T03:13:22.915Z,132
2015-07-19T03:13:41.306Z,137
2015-07-19T03:13:59.712Z,141
2015-07-19T03:14:18.150Z,146
2015-07-19T03:14:36.621Z,152
2015-07-19T03:14:55.136Z,157
2015-07-19T03:15:13.589Z,164
2015-07-19T03:15:31.967Z,169
2015-07-19T03:15:50.514Z,176
2015-07-19T03:16:08.983Z,183
2015-07-19T03:16:27.344Z,189
2015-07-19T03:16:45.719Z,196
2015-07-19T03:17:04.157Z,202
2015-07-19T03:17:22.547Z,208
2015-07-19T03:17:41.252Z,213
2015-07-19T03:17:59.798Z,220
2015-07-19T03:18:18.408Z,225
2015-07-19T03:18:37.223Z,231
2015-07-19T03:18:55.848Z,236
2015-07-19T03:19:14.442Z,241
2015-07-19T03:19:33.334Z,247
2015-07-19T03:19:51.209Z,252
2015-07-19T03:20:09.693Z,257
2015-07-19T03:20:28.212Z,265
2015-07-19T03:20:46.743Z,270
2015-07-19T03:21:05.118Z,277
2015-07-19T03:21:23.509Z,284
2015-07-19T03:21:41.978Z,288
2015-07-19T03:22:00.400Z,295
2015-07-19T03:22:18.197Z,301
2015-07-19T03:22:36.949Z,307
2015-07-19T03:22:55.480Z,313
2015-07-19T03:23:13.933Z,320
2015-07-19T03:23:32.465Z,326
2015-07-19T03:23:50.904Z,334
2015-07-19T03:24:09.389Z,339
2015-07-19T03:24:27.935Z,346
2015-07-19T03:24:46.328Z,353
2015-07-19T03:25:04.812Z,358
2015-07-19T03:25:23.203Z,366
2015-07-19T03:25:41.564Z,372
2015-07-19T03:26:00.033Z,378
2015-07-19T03:26:18.627Z,382
2015-07-19T03:26:37.236Z,388
2015-07-19T03:26:55.817Z,394
2015-07-19T03:27:14.349Z,400
2015-07-19T03:27:32.724Z,406
2015-07-19T03:27:51.131Z,412
2015-07-19T03:28:09.600Z,420
2015-07-19T03:28:28.100Z,426
2015-07-19T03:28:47.727Z,432
2015-07-19T03:29:05.477Z,437
2015-07-19T03:29:24.258Z,442
2015-07-19T03:29:42.713Z,447
2015-07-19T03:30:01.213Z,451
2015-07-19T03:30:19.604Z,454
2015-07-19T03:30:38.151Z,457
2015-07-19T03:30:56.684Z,460
2015-07-19T03:31:15.153Z,463
2015-07-19T03:31:33.528Z,465
2015-07-19T03:31:51.373Z,468
2015-07-19T03:32:09.811Z,470
2015-07-19T03:32:28.295Z,473
2015-07-19T03:32:46.672Z,475
2015-07-19T03:33:05.094Z,478
2015-07-19T03:33:23.453Z,480
2015-07-19T03:33:41.875Z,485
2015-07-19T03:34:00.502Z,485
2015-07-19T03:34:18.877Z,490
2015-07-19T03:34:37.409Z,490
2015-07-19T03:34:55.769Z,496
2015-07-19T03:35:14.160Z,499
2015-07-19T03:35:32.535Z,502
2015-07-19T03:35:50.912Z,507
2015-07-19T03:36:09.130Z,511
2015-07-19T03:36:27.552Z,514
2015-07-19T03:36:45.912Z,518
2015-07-19T03:37:04.274Z,522
2015-07-19T03:37:22.774Z,525
2015-07-19T03:37:41.180Z,530
2015-07-19T03:37:59.573Z,534
2015-07-19T03:38:18.229Z,537
2015-07-19T03:38:36.854Z,541
2015-07-19T03:38:55.246Z,543
2015-07-19T03:39:13.636Z,547
2015-07-19T03:39:31.574Z,551
2015-07-19T03:39:49.933Z,555
2015-07-19T03:40:08.311Z,558
2015-07-19T03:40:26.702Z,561
2015-07-19T03:40:45.217Z,565
2015-07-19T03:41:03.734Z,568
2015-07-19T03:41:22.312Z,571
2015-07-19T03:41:40.687Z,574
2015-07-19T03:41:59.189Z,577
2015-07-19T03:42:17.580Z,581
2015-07-19T03:42:36.174Z,582
2015-07-19T03:42:54.580Z,586
2015-07-19T03:43:12.957Z,589
2015-07-19T03:43:31.785Z,593
2015-07-19T03:43:50.426Z,595
2015-07-19T03:44:08.881Z,595
2015-07-19T03:44:27.396Z,595
2015-07-19T03:44:45.803Z,595
2015-07-19T03:45:04.242Z,595
2015-07-19T03:45:22.758Z,595
2015-07-19T03:45:41.133Z,595
2015-07-19T03:45:59.636Z,595
2015-07-19T03:46:18.308Z,594
2015-07-19T03:46:36.667Z,595
2015-07-19T03:46:55.214Z,594
2015-07-19T03:47:13.591Z,594
2015-07-19T03:47:32.185Z,594
2015-07-19T03:47:50.669Z,593
2015-07-19T03:48:09.327Z,594
2015-07-19T03:48:27.827Z,594
2015-07-19T03:48:46.374Z,594
2015-07-19T03:49:04.750Z,594
2015-07-19T03:49:23.297Z,593
2015-07-19T03:49:41.688Z,593
2015-07-19T03:50:00.297Z,593
2015-07-19T03:50:18.722Z,593
2015-07-19T03:50:37.284Z,593
2015-07-19T03:50:55.659Z,593
2015-07-19T03:51:14.223Z,592
2015-07-19T03:51:32.692Z,592
2015-07-19T03:51:51.082Z,592
2015-07-19T03:52:09.475Z,592
2015-07-19T03:52:28.178Z,592
2015-07-19T03:52:46.537Z,592
2015-07-19T03:53:04.928Z,592
2015-07-19T03:53:23.492Z,592
2015-07-19T03:53:41.899Z,592
2015-07-19T03:54:00.414Z,592
2015-07-19T03:54:18.776Z,592
2015-07-19T03:54:36.635Z,592
2015-07-19T03:54:55.198Z,592
2015-07-19T03:55:13.730Z,592
2015-07-19T03:55:31.574Z,592
2015-07-19T03:55:50.245Z,592
2015-07-19T03:56:08.745Z,591
2015-07-19T03:56:27.279Z,591
2015-07-19T03:56:45.701Z,591
2015-07-19T03:57:04.076Z,591
2015-07-19T03:57:22.536Z,591
2015-07-19T03:57:41.240Z,592
2015-07-19T03:57:59.724Z,591
2015-07-19T03:58:18.205Z,591
2015-07-19T03:58:36.784Z,591
2015-07-19T03:58:55.315Z,591
2015-07-19T03:59:13.768Z,591
2015-07-19T03:59:32.235Z,591
2015-07-19T03:59:50.782Z,591
2015-07-19T04:00:08.547Z,591
2015-07-19T04:00:27.015Z,591
2015-07-19T04:00:45.421Z,591
2015-07-19T04:01:03.812Z,590
2015-07-19T04:01:22.263Z,591
2015-07-19T04:01:40.685Z,591
2015-07-19T04:01:59.060Z,590
2015-07-19T04:02:17.451Z,590
2015-07-19T04:02:35.844Z,590
2015-07-19T04:02:54.516Z,590
2015-07-19T04:03:13.031Z,590
2015-07-19T04:03:31.472Z,590
2015-07-19T04:03:50.019Z,590
2015-07-19T04:04:08.550Z,590
2015-07-19T04:04:26.989Z,590
2015-07-19T04:04:45.583Z,590
2015-07-19T04:05:04.083Z,589
2015-07-19T04:05:22.492Z,590
2015-07-19T04:05:41.148Z,589
2015-07-19T04:05:59.695Z,589
2015-07-19T04:06:18.163Z,589
2015-07-19T04:06:36.744Z,589
2015-07-19T04:06:55.400Z,589
2015-07-19T04:07:13.931Z,589
2015-07-19T04:07:32.454Z,589
2015-07-19T04:07:50.845Z,589
2015-07-19T04:08:09.282Z,589
2015-07-19T04:08:27.681Z,589
2015-07-19T04:08:46.181Z,589
2015-07-19T04:09:04.696Z,589
2015-07-19T04:09:23.181Z,589
2015-07-19T04:09:41.578Z,589
2015-07-19T04:10:00.032Z,589
2015-07-19T04:10:18.516Z,589
2015-07-19T04:10:37.023Z,589
2015-07-19T04:10:55.460Z,589
2015-07-19T04:11:13.992Z,589
2015-07-19T04:11:32.546Z,589
2015-07-19T04:11:50.936Z,589
2015-07-19T04:12:09.327Z,589
2015-07-19T04:12:27.717Z,589
2015-07-19T04:12:46.253Z,589
2015-07-19T04:13:04.815Z,588
2015-07-19T04:13:23.300Z,589
2015-07-19T04:13:41.710Z,589
2015-07-19T04:14:00.116Z,588
2015-07-19T04:14:18.616Z,588
2015-07-19T04:14:37.245Z,588
2015-07-19T04:14:55.667Z,588
2015-07-19T04:15:14.136Z,588
2015-07-19T04:15:32.776Z,588
2015-07-19T04:15:51.265Z,588
2015-07-19T04:16:10.030Z,588
2015-07-19T04:16:28.468Z,588
2015-07-19T04:16:47.003Z,588
2015-07-19T04:17:05.456Z,588
2015-07-19T04:17:23.862Z,588
2015-07-19T04:17:42.630Z,587
2015-07-19T04:18:01.021Z,587
2015-07-19T04:18:19.396Z,587
2015-07-19T04:18:37.896Z,587
2015-07-19T04:18:56.492Z,588
2015-07-19T04:19:14.883Z,588
2015-07-19T04:19:33.321Z,588
2015-07-19T04:19:51.699Z,587
2015-07-19T04:20:10.089Z,588
2015-07-19T04:20:28.636Z,588
2015-07-19T04:20:47.030Z,587
2015-07-19T04:21:05.483Z,588